Weather History for KAUN - October, 2010

Change the Weather History Date:

Thursday, October 7, 2010

  Actual Average Record
Temperature  
Mean Temperature 60 °F -  
Max Temperature 68 °F 79 °F 95 °F (1953)
Min Temperature 53 °F 53 °F 41 °F (1949)
Degree Days  
Heating Degree Days 4    
Growing Degree Days 10 (Base 50)    
Moisture  
Dew Point 49 °F    
Average Humidity 71    
Maximum Humidity 94    
Minimum Humidity 46    
Precipitation  
Precipitation 0.00 in - - ()
Sea Level Pressure  
Sea Level Pressure 30.14 in    
Wind  
Wind Speed 6 mph (SSE)    
Max Wind Speed 9 mph    
Max Gust Speed -    
Visibility 10 miles    
Events      
Averages and records for this station are not official NWS values.
T = Trace of Precipitation, MM = Missing Value Source: NWS Daily Summary

Daily Weather History Graph

Daily Weather History Graph

Search for Another Location

Airport or City:

Trip Planner

Search our weather history database for the weather conditions in past years. The results will help you decide how hot, cold, wet, or windy it might be!

Date:

Astronomy

Oct. 07, 2010 Rise Set
Actual Time 7:06 AM PDT 6:37 PM PDT
Civil Twilight 6:39 AM PDT 7:04 PM PDT
Nautical Twilight 6:08 AM PDT 7:35 PM PDT
Astronomical Twilight 5:37 AM PDT 8:05 PM PDT
Moon 7:03 AM PDT (10/7) 6:18 PM PDT (10/7)
Length of Visible Light 12h 24m
Length of Day
11h 31m
New Moon, 0% of the Moon is Illuminated
Oct 7
New Moon
Oct 14
First Quarter
Oct 22
Full
Oct 30
Last Quarter
Nov 5
New

Hourly Weather History & Observations

Time (PDT) Temp. Dew Point Humidity Pressure Visibility Wind Dir Wind Speed Gust Speed Precip Events Conditions
12:10 AM 60.8 °F 48.2 °F 63% 30.09 in 10.0 mi SE 8.1 mph - N/A   Overcast
12:30 AM 59.0 °F 51.8 °F 77% 30.09 in 9.0 mi ESE 9.2 mph - N/A   Overcast
12:50 AM 57.2 °F 53.6 °F 88% 30.09 in 10.0 mi ESE 6.9 mph - N/A   Overcast
1:10 AM 57.2 °F 51.8 °F 82% 30.09 in 10.0 mi ESE 5.8 mph - N/A   Overcast
1:30 AM 57.2 °F 51.8 °F 82% 30.10 in 10.0 mi ESE 8.1 mph - N/A   Overcast
1:50 AM 57.2 °F 51.8 °F 82% 30.10 in 10.0 mi ESE 8.1 mph - N/A   Overcast
2:10 AM 57.2 °F 50.0 °F 77% 30.10 in 10.0 mi SSE 5.8 mph - N/A   Overcast
2:30 AM 57.2 °F 51.8 °F 82% 30.10 in 10.0 mi SE 4.6 mph - N/A   Overcast
2:50 AM 57.2 °F 50.0 °F 77% 30.10 in 10.0 mi SE 4.6 mph - N/A   Overcast
3:10 AM 57.2 °F 51.8 °F 82% 30.10 in 10.0 mi SE 4.6 mph - N/A   Overcast
3:30 AM 57.2 °F 50.0 °F 77% 30.10 in 10.0 mi SE 4.6 mph - N/A   Overcast
3:50 AM 57.2 °F 51.8 °F 82% 30.10 in 10.0 mi East 3.5 mph - N/A   Overcast
4:10 AM 57.2 °F 51.8 °F 82% 30.10 in 10.0 mi East 3.5 mph - N/A   Mostly Cloudy
4:30 AM 57.2 °F 51.8 °F 82% 30.10 in 10.0 mi SE 4.6 mph - N/A   Mostly Cloudy
4:50 AM 57.2 °F 51.8 °F 82% 30.10 in 10.0 mi SE 5.8 mph - N/A   Mostly Cloudy
5:10 AM 57.2 °F 51.8 °F 82% 30.11 in 10.0 mi SE 4.6 mph - N/A   Mostly Cloudy
5:30 AM 55.4 °F 51.8 °F 88% 30.12 in 10.0 mi ESE 4.6 mph - N/A   Overcast
5:50 AM 55.4 °F 51.8 °F 88% 30.11 in 10.0 mi ESE 5.8 mph - N/A   Mostly Cloudy
6:10 AM 55.4 °F 51.8 °F 88% 30.11 in 10.0 mi ESE 6.9 mph - N/A   Mostly Cloudy
6:30 AM 55.4 °F 51.8 °F 88% 30.12 in 10.0 mi ESE 6.9 mph - N/A   Mostly Cloudy
6:50 AM 55.4 °F 51.8 °F 88% 30.12 in 10.0 mi ESE 6.9 mph - N/A   Mostly Cloudy
7:10 AM 53.6 °F 51.8 °F 94% 30.13 in 10.0 mi ESE 5.8 mph - N/A   Mostly Cloudy
7:30 AM 53.6 °F 51.8 °F 94% 30.13 in 10.0 mi SE 3.5 mph - N/A   Mostly Cloudy
7:50 AM 55.4 °F 51.8 °F 88% 30.14 in 10.0 mi SSE 4.6 mph - N/A   Partly Cloudy
8:10 AM 55.4 °F 51.8 °F 88% 30.13 in 10.0 mi SSE 6.9 mph - N/A   Partly Cloudy
8:30 AM 55.4 °F 50.0 °F 82% 30.14 in 10.0 mi South 3.5 mph - N/A   Clear
8:50 AM 55.4 °F 50.0 °F 82% 30.15 in 10.0 mi SSE 5.8 mph - N/A   Clear
9:10 AM 55.4 °F 50.0 °F 82% 30.16 in 10.0 mi South 6.9 mph - N/A   Mostly Cloudy
9:30 AM 55.4 °F 50.0 °F 82% 30.16 in 10.0 mi SE 8.1 mph - N/A   Scattered Clouds
9:50 AM 57.2 °F 48.2 °F 72% 30.17 in 10.0 mi SE 6.9 mph - N/A   Mostly Cloudy
10:10 AM 57.2 °F 48.2 °F 72% 30.17 in 10.0 mi South 4.6 mph - N/A   Mostly Cloudy
10:30 AM 57.2 °F 48.2 °F 72% 30.18 in 10.0 mi SSE 5.8 mph - N/A   Mostly Cloudy
10:50 AM 60.8 °F 50.0 °F 68% 30.18 in 10.0 mi South 4.6 mph - N/A   Mostly Cloudy
11:10 AM 60.8 °F 50.0 °F 68% 30.18 in 10.0 mi SSW 8.1 mph - N/A   Overcast
11:30 AM 60.8 °F 50.0 °F 68% 30.18 in 10.0 mi SW 5.8 mph - N/A   Mostly Cloudy
11:50 AM 60.8 °F 50.0 °F 68% 30.18 in 10.0 mi South 8.1 mph - N/A   Mostly Cloudy
12:10 PM 62.6 °F 50.0 °F 63% 30.18 in 10.0 mi SSW 8.1 mph - N/A   Mostly Cloudy
12:30 PM 62.6 °F 48.2 °F 59% 30.18 in 10.0 mi South 6.9 mph - N/A   Mostly Cloudy
12:50 PM 62.6 °F 50.0 °F 63% 30.18 in 10.0 mi SSE 6.9 mph - N/A   Mostly Cloudy
1:10 PM 64.4 °F 48.2 °F 56% 30.18 in 10.0 mi SSW 8.1 mph - N/A   Scattered Clouds
1:30 PM 64.4 °F 48.2 °F 56% 30.18 in 10.0 mi SSW 4.6 mph - N/A   Partly Cloudy
1:50 PM 66.2 °F 48.2 °F 52% 30.18 in 10.0 mi WSW 8.1 mph - N/A   Partly Cloudy
2:10 PM 66.2 °F 46.4 °F 49% 30.17 in 10.0 mi South 6.9 mph - N/A   Partly Cloudy
2:30 PM 66.2 °F 44.6 °F 46% 30.17 in 10.0 mi WSW 9.2 mph - N/A   Clear
2:50 PM 66.2 °F 46.4 °F 49% 30.16 in 10.0 mi SSW 6.9 mph - N/A   Clear
3:10 PM 66.2 °F 46.4 °F 49% 30.16 in 10.0 mi WSW 8.1 mph - N/A   Clear
3:30 PM 68.0 °F 46.4 °F 46% 30.17 in 10.0 mi SSW 8.1 mph - N/A   Clear
3:50 PM 66.2 °F 44.6 °F 46% 30.17 in 10.0 mi SW 8.1 mph - N/A   Partly Cloudy
4:10 PM 66.2 °F 44.6 °F 46% 30.17 in 10.0 mi South 4.6 mph - N/A   Partly Cloudy
4:30 PM 66.2 °F 44.6 °F 46% 30.17 in 10.0 mi West 5.8 mph - N/A   Clear
4:50 PM 66.2 °F 44.6 °F 46% 30.17 in 10.0 mi SSW 5.8 mph - N/A   Clear
5:10 PM 66.2 °F 44.6 °F 46% 30.16 in 10.0 mi Calm Calm - N/A   Clear
5:30 PM 66.2 °F 44.6 °F 46% 30.16 in 10.0 mi WSW 5.8 mph - N/A   Clear
5:50 PM 66.2 °F 44.6 °F 46% 30.17 in 10.0 mi SSW 5.8 mph - N/A   Clear
6:10 PM 64.4 °F 44.6 °F 49% 30.17 in 10.0 mi SSW 4.6 mph - N/A   Clear
6:30 PM 64.4 °F 44.6 °F 49% 30.17 in 10.0 mi SW 5.8 mph - N/A   Clear
6:50 PM 64.4 °F 44.6 °F 49% 30.17 in 10.0 mi SSW 3.5 mph - N/A   Clear
7:10 PM 62.6 °F 44.6 °F 52% 30.17 in 10.0 mi Calm Calm - N/A   Clear
7:30 PM 60.8 °F 44.6 °F 55% 30.18 in 10.0 mi Calm Calm - N/A   Clear
7:50 PM 59.0 °F 44.6 °F 59% 30.18 in 10.0 mi Calm Calm - N/A   Clear
8:10 PM 55.4 °F 42.8 °F 63% 30.18 in 10.0 mi Calm Calm - N/A   Clear
8:30 PM 55.4 °F 44.6 °F 67% 30.19 in 10.0 mi Calm Calm - N/A   Clear
8:50 PM 55.4 °F 44.6 °F 67% 30.19 in 10.0 mi Calm Calm - N/A   Clear
9:10 PM 53.6 °F 42.8 °F 67% 30.19 in 10.0 mi Calm Calm - N/A   Clear
9:30 PM 53.6 °F 42.8 °F 67% 30.19 in 10.0 mi Calm Calm - N/A   Clear
9:50 PM 55.4 °F 44.6 °F 67% 30.19 in 10.0 mi East 3.5 mph - N/A   Clear
10:10 PM 55.4 °F 44.6 °F 67% 30.19 in 10.0 mi Calm Calm - N/A   Clear
10:30 PM 55.4 °F 44.6 °F 67% 30.19 in 10.0 mi Calm Calm - N/A   Clear
10:50 PM 53.6 °F 46.4 °F 77% 30.19 in 10.0 mi Calm Calm - N/A   Clear
11:10 PM 55.4 °F 48.2 °F 77% 30.19 in 10.0 mi ESE 4.6 mph - N/A   Clear
11:30 PM 55.4 °F 48.2 °F 77% 30.19 in 10.0 mi East 5.8 mph - N/A   Clear
11:50 PM 55.4 °F 48.2 °F 77% 30.18 in 10.0 mi East 4.6 mph - N/A   Clear